Time;durP1;ratioP1;P1;durP2;ratioP2;P2;SDS_P1;SDS_P2;PMS_P1;PMS_P2;Temp;Humidity;BMP_temperature;BMP_pressure;BME280_temperature;BME280_humidity;BME280_pressure;Samples;Min_cycle;Max_cycle;Signal;HPM_P1;HPM_P2
2021/05/07 00:00:57;;;;;;;30.95;19.65;;;6.10;77.30;;;;;;5092864;28;20084;-77
2021/05/07 00:03:23;;;;;;;27.90;17.38;;;6.10;76.80;;;;;;5100542;28;20447;-80
2021/05/07 00:05:55;;;;;;;31.10;19.75;;;6.00;76.40;;;;;;5104792;28;20020;-78
2021/05/07 00:08:31;;;;;;;32.40;19.92;;;6.00;76.40;;;;;;5086394;28;20455;-78
2021/05/07 00:10:58;;;;;;;35.10;21.60;;;5.90;76.60;;;;;;5091266;28;20036;-77
2021/05/07 00:13:26;;;;;;;34.88;20.15;;;5.90;76.90;;;;;;5086273;28;20085;-78
2021/05/07 00:15:52;;;;;;;30.45;19.38;;;5.90;77.00;;;;;;5106514;28;20048;-78
2021/05/07 00:18:18;;;;;;;30.55;18.70;;;5.80;76.80;;;;;;5104397;28;20606;-78
2021/05/07 00:20:44;;;;;;;35.95;20.67;;;5.70;76.70;;;;;;5090115;28;20055;-78
2021/05/07 00:23:10;;;;;;;32.53;19.05;;;5.70;76.90;;;;;;5103701;28;20051;-77
2021/05/07 00:25:36;;;;;;;37.15;19.90;;;5.60;76.80;;;;;;5086991;28;20027;-77
2021/05/07 00:28:03;;;;;;;33.72;21.90;;;5.60;77.20;;;;;;5098337;27;20019;-79
2021/05/07 00:30:29;;;;;;;40.08;24.40;;;5.60;77.80;;;;;;5101696;28;20031;-77
2021/05/07 00:32:55;;;;;;;37.28;22.80;;;5.50;78.50;;;;;;5103690;28;20373;-78
2021/05/07 00:35:21;;;;;;;39.03;22.35;;;5.60;78.80;;;;;;5089806;28;20032;-78
2021/05/07 00:37:47;;;;;;;32.53;19.02;;;5.60;78.80;;;;;;5108977;28;20034;-78
2021/05/07 00:40:13;;;;;;;33.65;20.67;;;5.60;78.50;;;;;;5087489;28;20031;-79
2021/05/07 00:42:39;;;;;;;30.13;18.45;;;5.60;78.60;;;;;;5082776;28;20115;-79
2021/05/07 00:45:07;;;;;;;28.30;17.20;;;5.60;78.50;;;;;;5081137;28;20024;-77
2021/05/07 00:47:38;;;;;;;26.92;16.55;;;5.60;78.30;;;;;;5108347;28;20036;-78
2021/05/07 00:50:06;;;;;;;23.20;13.52;;;5.60;78.10;;;;;;5081970;28;20155;-78
2021/05/07 00:52:37;;;;;;;19.98;12.68;;;5.50;77.50;;;;;;5110059;28;20031;-77
2021/05/07 00:55:04;;;;;;;22.63;14.40;;;5.50;77.20;;;;;;5094388;28;20046;-78
2021/05/07 00:57:31;;;;;;;28.25;16.10;;;5.50;77.40;;;;;;5080151;28;20119;-80
2021/05/07 00:59:57;;;;;;;25.80;15.25;;;5.40;77.80;;;;;;5108239;28;20024;-77
2021/05/07 01:02:24;;;;;;;23.60;14.07;;;5.40;78.00;;;;;;5090550;28;20034;-77
2021/05/07 01:04:50;;;;;;;19.60;12.52;;;5.40;77.70;;;;;;5089590;28;20077;-78
2021/05/07 01:07:16;;;;;;;25.70;14.88;;;5.30;77.40;;;;;;5086188;28;20028;-80
2021/05/07 01:09:42;;;;;;;19.13;12.95;;;5.30;77.60;;;;;;5083463;28;20028;-77
2021/05/07 01:12:09;;;;;;;22.60;14.75;;;5.30;77.30;;;;;;5106766;28;20043;-77
2021/05/07 01:14:36;;;;;;;23.15;14.40;;;5.30;77.50;;;;;;5094746;28;20110;-78
2021/05/07 01:17:03;;;;;;;23.75;13.90;;;5.20;77.60;;;;;;5092825;28;20492;-77
2021/05/07 01:19:29;;;;;;;22.00;13.85;;;5.20;77.70;;;;;;5104889;28;20660;-79
2021/05/07 01:21:56;;;;;;;27.98;17.52;;;5.10;77.80;;;;;;5100104;28;20111;-79
2021/05/07 01:24:29;;;;;;;30.00;18.05;;;5.00;78.70;;;;;;5087589;28;20023;-78
2021/05/07 01:26:55;;;;;;;29.88;18.05;;;5.00;79.30;;;;;;5105083;28;20068;-78
2021/05/07 01:29:21;;;;;;;24.23;15.05;;;5.10;79.50;;;;;;5103745;28;20028;-79
2021/05/07 01:31:54;;;;;;;29.20;19.27;;;5.10;79.20;;;;;;5100699;28;20027;-79
2021/05/07 01:34:21;;;;;;;23.83;16.42;;;5.10;79.30;;;;;;5102597;28;20080;-79
2021/05/07 01:36:47;;;;;;;22.65;14.25;;;5.10;79.10;;;;;;5072338;28;20054;-78
2021/05/07 01:39:13;;;;;;;21.10;13.80;;;5.10;78.80;;;;;;5097194;28;20032;-80
2021/05/07 01:41:38;;;;;;;26.42;14.70;;;5.10;78.70;;;;;;5107612;28;20019;-78
2021/05/07 01:44:05;;;;;;;28.70;16.58;;;5.10;78.60;;;;;;5090579;28;20024;-79
2021/05/07 01:46:30;;;;;;;27.75;17.08;;;5.10;78.70;;;;;;5100857;28;20034;-80
2021/05/07 01:48:56;;;;;;;23.17;15.50;;;5.10;79.30;;;;;;5088245;28;20020;-79
2021/05/07 01:51:22;;;;;;;27.70;16.90;;;5.10;78.80;;;;;;5083483;28;20044;-79
2021/05/07 01:53:50;;;;;;;27.08;16.73;;;5.00;78.70;;;;;;5101194;28;20122;-79
2021/05/07 01:56:16;;;;;;;26.27;16.35;;;5.00;79.10;;;;;;5086484;28;20115;-80
2021/05/07 01:58:42;;;;;;;20.73;13.63;;;5.00;79.30;;;;;;5083575;28;20102;-80
2021/05/07 02:01:08;;;;;;;26.85;16.20;;;5.00;79.30;;;;;;5084526;28;20039;-79
2021/05/07 02:03:33;;;;;;;25.83;16.85;;;5.00;79.40;;;;;;5090302;28;20020;-79
2021/05/07 02:05:59;;;;;;;27.65;17.42;;;4.90;79.50;;;;;;5080974;28;20388;-78
2021/05/07 02:08:25;;;;;;;24.05;16.73;;;4.90;79.80;;;;;;5096928;28;20483;-79
2021/05/07 02:10:50;;;;;;;27.05;15.52;;;4.90;79.90;;;;;;5104849;28;20038;-79
2021/05/07 02:13:16;;;;;;;25.60;15.30;;;5.00;79.70;;;;;;5102411;28;20023;-79
2021/05/07 02:15:42;;;;;;;24.88;15.23;;;5.00;79.80;;;;;;5089753;28;20044;-79
2021/05/07 02:18:08;;;;;;;22.38;13.48;;;4.90;79.50;;;;;;5087501;28;20418;-79
2021/05/07 02:20:34;;;;;;;22.13;13.63;;;5.00;79.40;;;;;;5086639;28;20043;-79
2021/05/07 02:23:01;;;;;;;21.60;12.98;;;5.00;79.30;;;;;;5081844;28;20111;-79
2021/05/07 02:25:28;;;;;;;28.27;15.80;;;4.90;79.10;;;;;;5086314;28;20020;-79
2021/05/07 02:27:56;;;;;;;23.25;14.75;;;4.90;79.70;;;;;;5082718;28;20027;-79
2021/05/07 02:30:28;;;;;;;25.10;14.57;;;4.90;79.60;;;;;;5094834;28;20034;-79
2021/05/07 02:32:55;;;;;;;23.73;14.97;;;4.90;79.70;;;;;;5087368;28;20028;-79
2021/05/07 02:35:21;;;;;;;23.52;15.10;;;4.90;79.90;;;;;;5079928;28;20032;-79
2021/05/07 02:37:48;;;;;;;20.67;12.82;;;4.90;80.00;;;;;;5089354;28;20091;-78
2021/05/07 02:40:14;;;;;;;22.10;13.80;;;4.90;79.70;;;;;;5099929;28;20056;-79
2021/05/07 02:42:39;;;;;;;20.27;11.65;;;4.90;79.60;;;;;;5097931;28;20056;-79
2021/05/07 02:45:07;;;;;;;14.55;9.73;;;4.90;79.30;;;;;;5099514;28;20016;-79
2021/05/07 02:47:34;;;;;;;16.63;9.88;;;4.80;79.20;;;;;;5085199;28;20851;-79
2021/05/07 02:50:01;;;;;;;14.13;8.90;;;4.90;79.30;;;;;;5084689;28;20115;-79
2021/05/07 02:52:26;;;;;;;15.90;10.00;;;4.80;79.30;;;;;;5063347;28;20487;-79
2021/05/07 02:54:52;;;;;;;14.73;9.15;;;4.80;79.30;;;;;;5097511;28;20047;-79
2021/05/07 02:57:18;;;;;;;14.68;9.05;;;4.80;79.20;;;;;;5098971;28;20115;-79
2021/05/07 02:59:43;;;;;;;14.45;8.25;;;4.80;79.20;;;;;;5089172;28;20143;-79
2021/05/07 03:02:09;;;;;;;11.82;8.00;;;4.80;79.20;;;;;;5082987;28;20016;-79
2021/05/07 03:04:35;;;;;;;15.45;9.55;;;4.80;79.20;;;;;;5098854;28;20110;-78
2021/05/07 03:07:01;;;;;;;16.20;9.65;;;4.90;79.20;;;;;;5084438;28;20024;-78
2021/05/07 03:09:26;;;;;;;15.38;9.73;;;4.90;79.30;;;;;;5098734;28;23264;-78
2021/05/07 03:11:54;;;;;;;14.80;9.40;;;4.90;79.30;;;;;;5085375;28;20102;-78
2021/05/07 03:14:21;;;;;;;12.25;8.68;;;5.00;79.40;;;;;;5100471;28;20051;-78
2021/05/07 03:16:46;;;;;;;17.30;10.00;;;5.00;79.40;;;;;;5092290;28;20048;-78
2021/05/07 03:19:12;;;;;;;15.70;9.15;;;5.10;79.50;;;;;;5079911;28;20058;-79
2021/05/07 03:21:38;;;;;;;15.93;10.07;;;5.10;79.50;;;;;;5095782;28;20036;-78
2021/05/07 03:24:05;;;;;;;14.93;9.23;;;5.20;79.40;;;;;;5091708;28;20020;-78
2021/05/07 03:26:31;;;;;;;17.92;10.68;;;5.30;79.30;;;;;;5106496;28;20151;-78
2021/05/07 03:28:57;;;;;;;15.18;10.65;;;5.40;79.20;;;;;;5099366;28;20073;-78
2021/05/07 03:31:23;;;;;;;18.60;12.55;;;5.50;79.10;;;;;;5079817;28;20471;-78
2021/05/07 03:33:49;;;;;;;21.45;13.30;;;5.60;79.10;;;;;;5086217;28;20461;-78
2021/05/07 03:36:16;;;;;;;18.77;12.98;;;5.70;79.00;;;;;;5098280;28;20024;-77
2021/05/07 03:38:42;;;;;;;19.35;12.73;;;5.80;78.80;;;;;;5084755;28;20039;-78
2021/05/07 03:41:09;;;;;;;19.73;14.23;;;6.00;78.70;;;;;;5085613;28;20080;-78
2021/05/07 03:43:36;;;;;;;23.13;15.98;;;6.10;78.40;;;;;;5101725;28;20051;-77
2021/05/07 03:46:02;;;;;;;22.95;15.32;;;6.20;78.10;;;;;;5098688;28;20127;-78
2021/05/07 03:48:29;;;;;;;16.50;13.60;;;6.40;77.90;;;;;;5084201;28;20123;-78
2021/05/07 03:50:56;;;;;;;22.83;15.75;;;6.50;77.70;;;;;;5086298;28;20077;-77
2021/05/07 03:53:22;;;;;;;20.75;14.73;;;6.70;76.70;;;;;;5106161;28;20028;-77
2021/05/07 03:55:50;;;;;;;22.88;14.68;;;6.90;75.80;;;;;;5065878;28;20813;-77
2021/05/07 03:58:16;;;;;;;21.10;13.93;;;7.00;75.20;;;;;;5078260;28;20023;-79
2021/05/07 04:00:42;;;;;;;23.05;14.40;;;7.20;74.80;;;;;;5101501;28;20020;-77
2021/05/07 04:03:08;;;;;;;21.10;14.55;;;7.30;74.20;;;;;;5106169;28;20128;-76
2021/05/07 04:05:35;;;;;;;20.10;13.50;;;7.50;73.00;;;;;;5080563;28;20039;-77
2021/05/07 04:10:37;;;;;;;24.63;15.20;;;7.80;71.90;;;;;;5097571;28;20107;-77
2021/05/07 04:15:32;;;;;;;16.13;10.65;;;8.00;71.40;;;;;;5108104;28;20047;-77
2021/05/07 04:17:59;;;;;;;18.83;12.25;;;8.10;71.50;;;;;;5089617;28;20044;-76
2021/05/07 04:20:25;;;;;;;21.23;13.30;;;8.20;71.20;;;;;;5101314;28;20039;-77
2021/05/07 04:22:51;;;;;;;18.45;12.30;;;8.30;70.50;;;;;;5090327;28;20032;-77
2021/05/07 04:25:18;;;;;;;18.40;11.27;;;8.40;70.50;;;;;;5075035;28;20032;-76
2021/05/07 04:27:44;;;;;;;23.98;13.40;;;8.50;70.80;;;;;;5098010;28;20028;-76
2021/05/07 04:30:10;;;;;;;17.92;12.80;;;8.60;70.30;;;;;;5077725;28;20041;-76
2021/05/07 04:32:36;;;;;;;21.10;12.75;;;8.80;69.80;;;;;;5102572;28;20019;-77
2021/05/07 04:35:02;;;;;;;20.08;13.93;;;9.00;68.90;;;;;;5091945;28;20552;-77
2021/05/07 04:37:28;;;;;;;20.90;15.52;;;9.10;67.90;;;;;;5107623;28;20028;-77
2021/05/07 04:39:57;;;;;;;18.20;13.30;;;9.20;67.30;;;;;;5082096;28;20370;-77
2021/05/07 04:42:23;;;;;;;16.70;11.57;;;9.20;67.20;;;;;;5104257;28;20098;-76
2021/05/07 04:44:48;;;;;;;14.85;9.57;;;9.30;67.40;;;;;;5104381;28;20106;-77
2021/05/07 04:47:14;;;;;;;21.90;11.65;;;9.40;66.90;;;;;;5088251;28;20032;-78
2021/05/07 04:49:40;;;;;;;17.48;12.48;;;9.40;66.30;;;;;;5097646;28;20039;-77
2021/05/07 04:52:06;;;;;;;22.20;13.38;;;9.50;66.30;;;;;;5094938;28;20081;-78
2021/05/07 04:54:34;;;;;;;15.52;11.70;;;9.60;66.50;;;;;;5080421;28;20042;-77
2021/05/07 04:57:01;;;;;;;20.08;12.35;;;9.70;66.50;;;;;;5079931;28;20032;-77
2021/05/07 04:59:27;;;;;;;16.63;11.57;;;9.80;65.60;;;;;;5114484;28;20020;-78
2021/05/07 05:01:52;;;;;;;16.35;11.25;;;9.90;65.50;;;;;;5085042;28;20019;-78
2021/05/07 05:04:18;;;;;;;16.23;10.35;;;10.00;64.90;;;;;;5109412;28;20031;-78
2021/05/07 05:06:44;;;;;;;18.10;10.43;;;10.10;64.90;;;;;;5091494;28;20058;-78
2021/05/07 05:09:10;;;;;;;14.52;10.13;;;10.20;64.70;;;;;;5080052;28;20176;-78
2021/05/07 05:11:36;;;;;;;17.75;10.23;;;10.30;64.00;;;;;;5105304;28;20076;-78
2021/05/07 05:14:02;;;;;;;15.30;9.73;;;10.50;63.20;;;;;;5098449;28;20016;-78
2021/05/07 05:16:28;;;;;;;15.88;10.60;;;10.60;63.10;;;;;;5098875;28;20488;-78
2021/05/07 05:18:54;;;;;;;15.88;10.65;;;10.70;63.00;;;;;;5088685;28;20020;-77
2021/05/07 05:21:20;;;;;;;17.55;11.45;;;10.80;63.10;;;;;;5103317;28;20373;-77
2021/05/07 05:23:47;;;;;;;22.67;11.82;;;10.90;62.90;;;;;;5097055;28;20103;-77
2021/05/07 05:26:13;;;;;;;17.15;10.63;;;11.00;62.60;;;;;;5081397;28;20111;-77
2021/05/07 05:28:42;;;;;;;14.80;8.88;;;11.20;62.50;;;;;;5087910;28;20111;-76
2021/05/07 05:31:08;;;;;;;13.52;7.63;;;11.30;61.60;;;;;;5084718;28;20031;-76
2021/05/07 05:33:33;;;;;;;14.50;7.88;;;11.50;61.70;;;;;;5083105;28;20039;-77
2021/05/07 05:35:59;;;;;;;11.00;7.50;;;11.70;60.60;;;;;;5103835;28;20665;-77
2021/05/07 05:38:26;;;;;;;12.88;7.15;;;11.80;59.50;;;;;;5082582;28;20381;-77
2021/05/07 05:40:52;;;;;;;9.63;6.60;;;11.90;59.00;;;;;;5078463;28;20748;-77
2021/05/07 05:43:18;;;;;;;10.35;6.90;;;12.10;59.10;;;;;;5090597;28;20107;-77
2021/05/07 05:45:44;;;;;;;11.27;7.57;;;12.30;58.60;;;;;;5083583;28;20028;-77
2021/05/07 05:48:13;;;;;;;11.55;8.25;;;12.50;57.20;;;;;;5104637;28;20032;-77
2021/05/07 05:50:41;;;;;;;11.88;7.75;;;12.70;57.10;;;;;;5103063;28;20132;-77
2021/05/07 05:53:07;;;;;;;15.68;9.05;;;12.80;56.90;;;;;;5085118;28;20032;-77
2021/05/07 05:55:36;;;;;;;18.83;9.55;;;13.00;55.90;;;;;;5103345;28;20034;-77
2021/05/07 05:58:03;;;;;;;21.75;10.25;;;13.20;55.70;;;;;;5107723;28;20028;-77
2021/05/07 06:00:29;;;;;;;27.20;12.13;;;13.30;54.90;;;;;;5086210;28;20031;-77
2021/05/07 06:02:55;;;;;;;48.28;15.63;;;13.50;53.10;;;;;;5080329;28;20097;-78
2021/05/07 06:05:21;;;;;;;46.65;16.63;;;13.60;52.50;;;;;;5094376;28;20028;-77
2021/05/07 06:07:47;;;;;;;44.90;16.38;;;13.70;52.20;;;;;;5083305;28;20024;-77
2021/05/07 06:10:14;;;;;;;38.08;14.02;;;13.80;51.10;;;;;;5076382;28;20024;-77
2021/05/07 06:12:48;;;;;;;42.55;12.10;;;13.90;51.10;;;;;;5097463;28;20073;-81
2021/05/07 06:15:16;;;;;;;45.30;14.70;;;14.10;51.50;;;;;;5080900;28;20408;-80
2021/05/07 06:17:42;;;;;;;38.15;11.55;;;14.20;49.70;;;;;;5084255;28;20040;-80
2021/05/07 06:20:10;;;;;;;38.05;13.75;;;14.30;49.50;;;;;;5077581;28;20118;-80
2021/05/07 06:22:36;;;;;;;41.35;14.52;;;14.60;48.80;;;;;;5079852;28;20027;-79
2021/05/07 06:25:05;;;;;;;53.03;16.95;;;14.70;48.60;;;;;;5077691;28;20119;-80
2021/05/07 06:27:31;;;;;;;66.50;20.50;;;14.80;48.70;;;;;;5092771;28;20027;-80
2021/05/07 06:29:57;;;;;;;67.70;21.30;;;14.90;48.90;;;;;;5096284;28;20037;-81
2021/05/07 06:32:28;;;;;;;70.53;21.63;;;15.00;48.80;;;;;;5096822;28;20244;-80
2021/05/07 06:34:57;;;;;;;49.28;16.70;;;15.10;48.90;;;;;;5082936;28;20047;-81
2021/05/07 06:37:23;;;;;;;46.53;15.70;;;15.20;49.60;;;;;;5096157;28;20032;-80
2021/05/07 06:39:48;;;;;;;50.08;15.70;;;15.40;49.20;;;;;;5092337;28;20035;-79
2021/05/07 06:42:15;;;;;;;48.85;17.30;;;15.60;47.90;;;;;;5081322;28;20070;-80
2021/05/07 06:44:42;;;;;;;41.20;13.95;;;15.60;47.60;;;;;;5091785;28;20028;-82
2021/05/07 06:47:10;;;;;;;28.77;12.50;;;15.70;47.20;;;;;;5102786;28;20034;-82
2021/05/07 06:49:35;;;;;;;40.88;13.90;;;15.80;47.40;;;;;;5098204;28;20748;-76
2021/05/07 06:52:01;;;;;;;33.38;12.23;;;15.90;47.30;;;;;;5092915;28;20037;-77
2021/05/07 06:54:27;;;;;;;30.58;10.98;;;16.10;46.80;;;;;;5081651;28;20023;-77
2021/05/07 06:56:57;;;;;;;24.08;8.88;;;16.20;47.50;;;;;;5083276;28;20091;-79
2021/05/07 06:59:27;;;;;;;20.20;7.63;;;16.30;47.60;;;;;;5079233;28;20521;-81
2021/05/07 07:01:53;;;;;;;20.95;7.47;;;16.50;46.20;;;;;;5096404;28;20489;-77
2021/05/07 07:04:21;;;;;;;12.95;6.00;;;16.60;46.10;;;;;;5099711;28;20027;-76
2021/05/07 07:06:47;;;;;;;5.97;3.95;;;16.80;45.50;;;;;;5099148;28;20036;-80
2021/05/07 07:09:14;;;;;;;4.72;3.17;;;16.90;44.30;;;;;;5074749;28;20027;-79
2021/05/07 07:11:42;;;;;;;9.27;4.60;;;17.00;45.10;;;;;;5079722;28;20027;-78
2021/05/07 07:14:08;;;;;;;12.30;5.00;;;17.20;43.30;;;;;;5079973;28;20031;-78
2021/05/07 07:16:34;;;;;;;11.23;4.55;;;17.40;41.60;;;;;;5075541;28;20079;-80
2021/05/07 07:19:01;;;;;;;9.52;3.70;;;17.50;38.80;;;;;;5068449;28;20050;-79
2021/05/07 07:21:28;;;;;;;12.00;4.15;;;17.60;38.20;;;;;;5097076;28;20054;-80
2021/05/07 07:23:56;;;;;;;13.73;4.28;;;17.70;38.60;;;;;;5101329;28;20024;-81
2021/05/07 07:26:22;;;;;;;12.35;3.97;;;17.90;38.40;;;;;;5080789;28;20036;-77
2021/05/07 07:28:52;;;;;;;7.07;3.10;;;18.00;38.20;;;;;;5096425;28;20032;-75
2021/05/07 07:31:19;;;;;;;7.82;3.17;;;18.20;38.00;;;;;;5095582;28;20063;-78
2021/05/07 07:33:44;;;;;;;6.38;2.92;;;18.40;35.80;;;;;;5079196;28;20063;-78
2021/05/07 07:36:10;;;;;;;10.77;3.78;;;18.50;35.90;;;;;;5085690;28;20555;-77
2021/05/07 07:38:36;;;;;;;5.35;2.70;;;18.60;36.50;;;;;;5096461;28;20431;-77
2021/05/07 07:41:03;;;;;;;5.95;2.97;;;18.70;36.30;;;;;;5104126;28;20023;-78
2021/05/07 07:43:29;;;;;;;4.97;1.80;;;18.80;35.60;;;;;;5100943;28;20042;-77
2021/05/07 07:45:55;;;;;;;2.05;1.60;;;18.90;35.50;;;;;;5083796;28;20031;-79
2021/05/07 07:48:21;;;;;;;2.75;1.83;;;19.00;35.90;;;;;;5075971;28;20032;-77
2021/05/07 07:50:48;;;;;;;2.88;2.22;;;19.10;35.50;;;;;;5096027;28;20024;-78
2021/05/07 07:53:14;;;;;;;2.97;1.77;;;19.30;35.10;;;;;;5094480;28;20130;-79
2021/05/07 07:55:40;;;;;;;2.58;2.20;;;19.40;35.70;;;;;;5072709;28;20028;-80
2021/05/07 07:58:08;;;;;;;6.20;2.17;;;19.60;35.70;;;;;;5064200;28;20036;-79
2021/05/07 08:00:33;;;;;;;4.95;1.70;;;19.80;35.10;;;;;;5075751;28;20387;-80
2021/05/07 08:02:59;;;;;;;5.00;2.20;;;19.90;33.10;;;;;;5101202;28;20032;-80
2021/05/07 08:05:25;;;;;;;4.93;1.88;;;19.90;33.40;;;;;;5079913;28;20053;-80
2021/05/07 08:07:51;;;;;;;6.00;2.45;;;20.00;33.00;;;;;;5102060;28;20031;-80
2021/05/07 08:10:18;;;;;;;3.60;1.67;;;20.00;32.70;;;;;;5075488;28;20024;-79
2021/05/07 08:12:45;;;;;;;1.63;1.48;;;20.10;32.40;;;;;;5105304;28;20063;-79
2021/05/07 08:15:12;;;;;;;2.28;1.70;;;20.00;33.20;;;;;;5084621;28;20125;-81
2021/05/07 08:17:40;;;;;;;4.82;1.67;;;20.10;32.20;;;;;;5068147;28;20040;-81
2021/05/07 08:20:07;;;;;;;4.38;2.28;;;20.10;32.80;;;;;;5081411;28;20021;-81
2021/05/07 08:22:33;;;;;;;4.68;1.90;;;20.10;33.20;;;;;;5083874;28;20035;-82
2021/05/07 08:24:59;;;;;;;3.58;1.98;;;20.30;33.10;;;;;;5085708;28;20024;-82
2021/05/07 08:27:26;;;;;;;2.40;1.70;;;20.40;31.80;;;;;;5077755;28;20501;-82
2021/05/07 08:29:51;;;;;;;3.88;1.58;;;20.50;32.10;;;;;;5060333;28;20490;-86
2021/05/07 08:32:17;;;;;;;2.85;2.10;;;20.50;32.40;;;;;;5086692;28;20147;-84
2021/05/07 08:34:44;;;;;;;3.53;1.40;;;20.60;31.90;;;;;;5084692;28;20123;-83
2021/05/07 08:37:20;;;;;;;1.70;1.30;;;20.60;31.60;;;;;;5076417;28;20028;-84
2021/05/07 08:39:46;;;;;;;9.05;5.25;;;20.70;32.40;;;;;;5078544;28;20489;-79
2021/05/07 08:42:13;;;;;;;6.07;3.13;;;20.80;31.70;;;;;;5084232;28;20027;-81
2021/05/07 08:44:39;;;;;;;3.90;2.60;;;20.80;30.00;;;;;;5081909;28;20184;-81
2021/05/07 08:47:06;;;;;;;4.05;2.10;;;20.70;30.10;;;;;;5077117;28;20024;-82
2021/05/07 08:49:42;;;;;;;4.35;2.78;;;20.50;30.60;;;;;;5083068;28;20028;-84
2021/05/07 08:52:11;;;;;;;7.75;4.15;;;20.50;30.30;;;;;;5076458;28;20032;-83
2021/05/07 08:54:46;;;;;;;3.70;2.22;;;20.60;30.20;;;;;;5078775;28;20019;-86
2021/05/07 08:57:13;;;;;;;4.75;2.10;;;20.60;30.10;;;;;;5085099;28;20033;-83
2021/05/07 08:59:39;;;;;;;5.07;2.83;;;20.40;31.20;;;;;;5077999;28;20824;-82
2021/05/07 09:02:08;;;;;;;5.93;3.92;;;20.50;30.90;;;;;;5082523;28;20047;-82
2021/05/07 09:04:36;;;;;;;4.35;2.40;;;20.60;30.60;;;;;;5065094;28;20035;-82
2021/05/07 09:07:11;;;;;;;4.38;2.30;;;20.60;31.20;;;;;;5079763;28;20036;-81
2021/05/07 09:09:49;;;;;;;4.00;2.60;;;20.60;31.40;;;;;;5070246;28;20450;-79
2021/05/07 09:12:27;;;;;;;6.50;3.30;;;20.60;31.40;;;;;;5079868;28;20036;-83
2021/05/07 09:14:58;;;;;;;9.15;3.00;;;20.60;32.30;;;;;;5080916;28;20046;-82
2021/05/07 09:17:35;;;;;;;3.35;2.20;;;20.80;31.90;;;;;;5090704;28;20144;-84
2021/05/07 09:20:20;;;;;;;6.38;2.00;;;21.00;31.40;;;;;;5076085;28;20055;-85
2021/05/07 09:22:46;;;;;;;4.60;2.78;;;21.20;30.80;;;;;;5093566;28;20031;-79
2021/05/07 09:25:21;;;;;;;2.15;1.67;;;21.20;31.10;;;;;;5092911;28;20028;-77
2021/05/07 09:27:47;;;;;;;1.75;1.25;;;21.40;31.20;;;;;;5068782;28;20463;-77
2021/05/07 09:30:23;;;;;;;4.90;2.40;;;21.50;30.50;;;;;;5075671;28;20051;-77
2021/05/07 09:32:54;;;;;;;5.03;2.22;;;21.60;30.40;;;;;;5078886;28;20954;-78
2021/05/07 09:35:24;;;;;;;2.38;1.58;;;21.60;30.20;;;;;;5091135;28;20102;-76
2021/05/07 09:38:12;;;;;;;2.38;1.60;;;21.50;30.20;;;;;;5093976;28;20060;-79
2021/05/07 09:40:39;;;;;;;2.67;1.70;;;21.40;30.50;;;;;;5093785;28;20248;-75
2021/05/07 09:43:20;;;;;;;3.88;2.15;;;21.40;30.80;;;;;;5076351;28;20031;-76
2021/05/07 09:45:53;;;;;;;2.83;1.85;;;21.50;30.30;;;;;;5086797;28;20028;-76
2021/05/07 09:48:19;;;;;;;3.20;1.65;;;21.60;29.90;;;;;;5066766;28;20043;-76
2021/05/07 09:50:45;;;;;;;3.22;1.90;;;21.60;30.10;;;;;;5069377;28;20031;-76
2021/05/07 09:53:13;;;;;;;7.05;2.50;;;21.70;30.10;;;;;;5072695;28;20064;-77
2021/05/07 09:55:42;;;;;;;3.90;1.88;;;22.00;29.80;;;;;;5097679;28;20047;-75
2021/05/07 09:58:08;;;;;;;5.30;2.80;;;22.10;29.80;;;;;;5098711;28;20024;-76
2021/05/07 10:00:34;;;;;;;9.45;3.80;;;22.20;29.80;;;;;;5096757;28;20032;-76
2021/05/07 10:03:01;;;;;;;5.50;2.65;;;22.30;29.30;;;;;;5092213;28;20049;-76
2021/05/07 10:05:28;;;;;;;6.32;2.67;;;22.30;29.50;;;;;;5094073;28;20024;-76
2021/05/07 10:07:58;;;;;;;4.97;2.78;;;22.30;29.50;;;;;;5073523;28;20217;-76
2021/05/07 10:10:37;;;;;;;4.25;1.80;;;22.30;29.40;;;;;;5090165;28;20036;-77
2021/05/07 10:13:06;;;;;;;2.75;1.75;;;22.20;29.60;;;;;;5081938;28;20028;-76
2021/05/07 10:15:38;;;;;;;3.30;1.60;;;22.10;29.50;;;;;;5066752;28;20031;-77
2021/05/07 10:18:06;;;;;;;3.65;1.63;;;22.00;29.80;;;;;;5098704;28;20032;-77
2021/05/07 10:20:35;;;;;;;5.43;2.70;;;21.90;30.10;;;;;;5096142;28;20022;-77
2021/05/07 10:23:13;;;;;;;6.40;2.70;;;22.00;29.80;;;;;;5101851;28;20028;-76
2021/05/07 10:25:42;;;;;;;5.57;2.58;;;21.90;30.00;;;;;;5079617;28;20508;-76
2021/05/07 10:28:16;;;;;;;3.13;1.85;;;21.80;30.10;;;;;;5096475;28;20344;-75
2021/05/07 10:30:42;;;;;;;3.63;1.88;;;21.70;29.90;;;;;;5094332;28;20515;-77
2021/05/07 10:33:17;;;;;;;3.95;2.35;;;21.60;30.00;;;;;;5093221;28;20059;-76
2021/05/07 10:35:47;;;;;;;5.68;3.67;;;21.60;30.50;;;;;;5094719;28;20031;-77
2021/05/07 10:38:16;;;;;;;7.65;3.53;;;21.60;30.50;;;;;;5098066;28;20081;-75
2021/05/07 10:40:43;;;;;;;10.45;4.10;;;21.60;30.70;;;;;;5106132;28;20096;-76
2021/05/07 10:43:10;;;;;;;14.10;3.42;;;21.70;31.40;;;;;;5097029;28;20085;-77
2021/05/07 10:45:52;;;;;;;4.65;2.60;;;22.00;30.80;;;;;;5083227;28;20031;-76
2021/05/07 10:48:24;;;;;;;6.30;2.92;;;22.00;30.40;;;;;;5081484;28;20023;-76
2021/05/07 10:50:56;;;;;;;6.72;2.33;;;22.10;31.00;;;;;;5082540;28;20086;-78
2021/05/07 10:53:32;;;;;;;4.45;2.30;;;22.20;30.30;;;;;;5077965;28;20043;-76
2021/05/07 10:55:58;;;;;;;3.90;2.33;;;22.10;30.00;;;;;;5078348;28;20039;-76
2021/05/07 10:58:53;;;;;;;2.33;1.90;;;22.00;30.30;;;;;;5081974;28;20032;-77
2021/05/07 11:01:22;;;;;;;3.92;2.10;;;21.80;30.50;;;;;;5094930;28;20181;-78
2021/05/07 11:04:08;;;;;;;6.55;3.00;;;21.80;30.70;;;;;;5093368;28;20867;-76
2021/05/07 11:06:46;;;;;;;6.05;2.50;;;21.70;30.50;;;;;;5078562;28;20027;-77
2021/05/07 11:09:31;;;;;;;10.35;3.10;;;21.60;30.20;;;;;;5090231;28;20028;-76
2021/05/07 11:12:03;;;;;;;4.82;2.70;;;21.60;31.00;;;;;;5079576;28;21832;-76
2021/05/07 11:14:32;;;;;;;4.22;2.28;;;21.50;30.20;;;;;;5064505;28;20040;-77
2021/05/07 11:16:58;;;;;;;3.92;2.58;;;21.50;30.50;;;;;;5096089;28;20062;-76
2021/05/07 11:19:30;;;;;;;3.85;2.00;;;21.50;30.90;;;;;;5078651;28;20036;-77
2021/05/07 11:22:01;;;;;;;6.53;2.50;;;21.50;30.60;;;;;;5076727;28;20032;-77
2021/05/07 11:24:39;;;;;;;3.70;2.10;;;21.40;30.60;;;;;;5101586;28;20096;-77
2021/05/07 11:27:30;;;;;;;6.43;2.25;;;21.20;31.30;;;;;;5097508;28;20579;-79
2021/05/07 11:30:09;;;;;;;3.15;2.30;;;21.00;31.80;;;;;;5073732;28;20027;-79
2021/05/07 11:32:35;;;;;;;6.35;2.13;;;20.80;32.10;;;;;;5081535;28;20035;-78
2021/05/07 11:35:09;;;;;;;3.30;1.90;;;20.70;32.40;;;;;;5081899;28;20028;-79
2021/05/07 11:37:38;;;;;;;4.25;3.00;;;20.50;32.80;;;;;;5078966;28;20023;-79
2021/05/07 11:40:15;;;;;;;5.50;2.60;;;20.30;33.10;;;;;;5099558;28;20028;-79
2021/05/07 11:42:44;;;;;;;8.43;2.80;;;20.20;33.60;;;;;;5094524;28;20027;-80
2021/05/07 11:45:22;;;;;;;5.38;1.92;;;20.00;33.70;;;;;;5075573;28;20043;-83
2021/05/07 11:47:48;;;;;;;3.42;2.30;;;19.90;34.10;;;;;;5098715;28;20027;-84
2021/05/07 11:50:17;;;;;;;7.40;2.05;;;19.70;34.50;;;;;;5078894;28;20024;-80
2021/05/07 11:52:45;;;;;;;11.10;5.50;;;19.60;36.30;;;;;;5079790;28;20042;-79
2021/05/07 11:55:24;;;;;;;8.35;4.43;;;19.40;37.40;;;;;;5098704;28;20036;-82
2021/05/07 11:58:07;;;;;;;4.95;2.25;;;19.20;38.00;;;;;;5078580;28;20770;-80
2021/05/07 12:00:35;;;;;;;4.47;2.70;;;19.10;38.30;;;;;;5076866;28;20087;-81
2021/05/07 12:03:09;;;;;;;7.15;2.70;;;18.90;38.60;;;;;;5093153;28;20038;-81
2021/05/07 12:05:45;;;;;;;3.72;2.10;;;18.80;38.70;;;;;;5094446;28;20031;-79
2021/05/07 12:08:12;;;;;;;3.03;2.00;;;18.60;38.80;;;;;;5067237;28;20162;-81
2021/05/07 12:10:44;;;;;;;4.82;2.20;;;18.50;38.90;;;;;;5104373;28;20050;-84
2021/05/07 12:13:21;;;;;;;2.92;1.95;;;18.50;39.20;;;;;;5083639;28;20032;-81
2021/05/07 12:15:48;;;;;;;2.13;1.55;;;18.40;39.00;;;;;;5066580;28;20086;-82
2021/05/07 12:18:24;;;;;;;3.95;2.35;;;18.40;39.10;;;;;;5074669;28;20058;-80
2021/05/07 12:20:59;;;;;;;5.00;3.42;;;18.40;39.20;;;;;;5097052;28;20036;-80
2021/05/07 12:23:26;;;;;;;6.88;4.40;;;18.30;39.50;;;;;;5101032;28;20051;-81
2021/05/07 12:25:52;;;;;;;7.38;5.00;;;18.40;40.30;;;;;;5081223;28;20057;-83
2021/05/07 12:28:30;;;;;;;9.52;7.18;;;18.60;39.70;;;;;;5084678;28;20058;-83
2021/05/07 12:30:57;;;;;;;9.68;6.97;;;18.80;39.30;;;;;;5065635;28;20710;-82
2021/05/07 12:33:25;;;;;;;10.50;6.97;;;19.00;39.40;;;;;;5085036;28;20051;-82
2021/05/07 12:35:56;;;;;;;12.15;7.72;;;19.30;39.50;;;;;;5083415;28;20032;-84
2021/05/07 12:38:33;;;;;;;10.10;5.78;;;19.70;38.70;;;;;;5087400;28;20035;-81
2021/05/07 12:41:11;;;;;;;9.15;5.45;;;19.90;38.10;;;;;;5085671;28;20488;-82
2021/05/07 12:43:46;;;;;;;10.40;4.95;;;20.10;37.90;;;;;;5099773;28;20024;-81
2021/05/07 12:46:15;;;;;;;8.45;4.53;;;20.10;37.50;;;;;;5103240;28;20069;-81
2021/05/07 12:48:48;;;;;;;10.38;4.72;;;20.10;37.50;;;;;;5083086;28;20019;-81
2021/05/07 12:51:15;;;;;;;11.52;4.97;;;20.10;37.50;;;;;;5101596;28;20039;-82